sensor_id;sensor_type;location;lat;lon;timestamp;pressure;altitude;pressure_sealevel;temperature;humidity
6859;BME280;3468;42.824;23.240;2024-02-16T00:00:23;67534.59;;;0.59;100.00
6859;BME280;3468;42.824;23.240;2024-02-16T00:02:50;67423.22;;;0.23;100.00
6859;BME280;3468;42.824;23.240;2024-02-16T00:05:17;67539.00;;;0.58;100.00
6859;BME280;3468;42.824;23.240;2024-02-16T00:07:45;67551.50;;;0.52;100.00
6859;BME280;3468;42.824;23.240;2024-02-16T00:10:12;67532.75;;;0.53;100.00
6859;BME280;3468;42.824;23.240;2024-02-16T00:12:39;67518.09;;;0.08;100.00
6859;BME280;3468;42.824;23.240;2024-02-16T00:15:07;67561.69;;;0.50;100.00
6859;BME280;3468;42.824;23.240;2024-02-16T00:17:36;67594.63;;;0.50;100.00
6859;BME280;3468;42.824;23.240;2024-02-16T00:20:03;67547.78;;;0.34;100.00
6859;BME280;3468;42.824;23.240;2024-02-16T00:22:32;67543.31;;;0.47;100.00
6859;BME280;3468;42.824;23.240;2024-02-16T00:25:01;67538.13;;;0.19;100.00
6859;BME280;3468;42.824;23.240;2024-02-16T00:27:28;67531.44;;;0.17;100.00
6859;BME280;3468;42.824;23.240;2024-02-16T00:29:55;67429.41;;;0.17;100.00
6859;BME280;3468;42.824;23.240;2024-02-16T00:32:22;67539.69;;;0.16;100.00
6859;BME280;3468;42.824;23.240;2024-02-16T00:34:50;67523.03;;;0.14;100.00
6859;BME280;3468;42.824;23.240;2024-02-16T00:37:19;67455.69;;;-0.44;100.00
6859;BME280;3468;42.824;23.240;2024-02-16T00:39:46;67507.94;;;0.10;100.00
6859;BME280;3468;42.824;23.240;2024-02-16T00:42:14;67467.81;;;0.01;100.00
6859;BME280;3468;42.824;23.240;2024-02-16T00:44:41;67541.84;;;0.07;100.00
6859;BME280;3468;42.824;23.240;2024-02-16T00:47:08;67526.91;;;0.07;100.00
6859;BME280;3468;42.824;23.240;2024-02-16T00:49:35;67509.41;;;-0.10;100.00
6859;BME280;3468;42.824;23.240;2024-02-16T00:52:02;67492.69;;;0.01;100.00
6859;BME280;3468;42.824;23.240;2024-02-16T00:54:30;67515.13;;;-0.05;100.00
6859;BME280;3468;42.824;23.240;2024-02-16T00:56:56;67500.19;;;-0.05;100.00
6859;BME280;3468;42.824;23.240;2024-02-16T00:59:29;67506.16;;;-0.09;100.00
6859;BME280;3468;42.824;23.240;2024-02-16T01:01:55;67527.59;;;-0.12;100.00
6859;BME280;3468;42.824;23.240;2024-02-16T01:04:22;67458.09;;;-0.07;100.00
6859;BME280;3468;42.824;23.240;2024-02-16T01:06:49;67491.31;;;-0.22;100.00
6859;BME280;3468;42.824;23.240;2024-02-16T01:09:16;67476.47;;;-0.35;100.00
6859;BME280;3468;42.824;23.240;2024-02-16T01:11:42;67482.22;;;-0.43;100.00
6859;BME280;3468;42.824;23.240;2024-02-16T01:14:09;67506.28;;;-0.35;100.00
6859;BME280;3468;42.824;23.240;2024-02-16T01:16:37;67507.88;;;-0.44;100.00
6859;BME280;3468;42.824;23.240;2024-02-16T01:19:04;67478.09;;;-0.50;100.00
6859;BME280;3468;42.824;23.240;2024-02-16T01:21:31;67473.72;;;-0.56;100.00
6859;BME280;3468;42.824;23.240;2024-02-16T01:23:58;67485.00;;;-0.57;100.00
6859;BME280;3468;42.824;23.240;2024-02-16T01:26:26;67448.66;;;-0.54;100.00
6859;BME280;3468;42.824;23.240;2024-02-16T01:28:53;67417.75;;;-0.68;100.00
6859;BME280;3468;42.824;23.240;2024-02-16T01:31:19;67488.03;;;-0.50;100.00
6859;BME280;3468;42.824;23.240;2024-02-16T01:33:47;67466.41;;;-0.45;100.00
6859;BME280;3468;42.824;23.240;2024-02-16T01:36:14;67470.59;;;-0.44;100.00
6859;BME280;3468;42.824;23.240;2024-02-16T01:38:41;67489.31;;;-0.39;100.00
6859;BME280;3468;42.824;23.240;2024-02-16T01:41:08;67470.91;;;-0.35;100.00
6859;BME280;3468;42.824;23.240;2024-02-16T01:43:36;67481.44;;;-0.35;100.00
6859;BME280;3468;42.824;23.240;2024-02-16T01:46:03;67488.13;;;-0.33;100.00
6859;BME280;3468;42.824;23.240;2024-02-16T01:48:30;67635.75;;;-0.86;100.00
6859;BME280;3468;42.824;23.240;2024-02-16T01:50:59;67480.38;;;-0.48;100.00
6859;BME280;3468;42.824;23.240;2024-02-16T01:53:28;67475.31;;;-0.36;100.00
6859;BME280;3468;42.824;23.240;2024-02-16T01:55:55;67450.00;;;-0.92;100.00
6859;BME280;3468;42.824;23.240;2024-02-16T01:58:22;67469.63;;;-0.41;100.00
6859;BME280;3468;42.824;23.240;2024-02-16T02:00:48;67487.78;;;-0.42;100.00
6859;BME280;3468;42.824;23.240;2024-02-16T02:03:15;67483.59;;;-0.43;100.00
6859;BME280;3468;42.824;23.240;2024-02-16T02:05:44;67497.56;;;-0.46;100.00
6859;BME280;3468;42.824;23.240;2024-02-16T02:08:13;67376.19;;;-1.17;100.00
6859;BME280;3468;42.824;23.240;2024-02-16T02:10:40;67502.94;;;-0.50;100.00
6859;BME280;3468;42.824;23.240;2024-02-16T02:13:07;67456.94;;;-0.62;100.00
6859;BME280;3468;42.824;23.240;2024-02-16T02:15:34;67451.34;;;-0.56;100.00
6859;BME280;3468;42.824;23.240;2024-02-16T02:18:00;67451.75;;;-0.60;100.00
6859;BME280;3468;42.824;23.240;2024-02-16T02:20:27;67460.03;;;-0.75;100.00
6859;BME280;3468;42.824;23.240;2024-02-16T02:22:55;67395.78;;;-0.66;100.00
6859;BME280;3468;42.824;23.240;2024-02-16T02:25:22;67444.97;;;-0.79;100.00
6859;BME280;3468;42.824;23.240;2024-02-16T02:27:48;67468.41;;;-0.65;100.00
6859;BME280;3468;42.824;23.240;2024-02-16T02:30:16;67461.13;;;-0.61;100.00
6859;BME280;3468;42.824;23.240;2024-02-16T02:32:43;67420.41;;;-0.64;100.00
6859;BME280;3468;42.824;23.240;2024-02-16T02:35:11;67455.97;;;-0.65;100.00
6859;BME280;3468;42.824;23.240;2024-02-16T02:37:39;67470.16;;;-0.70;100.00
6859;BME280;3468;42.824;23.240;2024-02-16T02:40:09;67485.47;;;-0.74;100.00
6859;BME280;3468;42.824;23.240;2024-02-16T02:42:35;67442.50;;;-0.79;100.00
6859;BME280;3468;42.824;23.240;2024-02-16T02:45:03;67400.19;;;-1.39;100.00
6859;BME280;3468;42.824;23.240;2024-02-16T02:47:31;67420.72;;;-0.85;100.00
6859;BME280;3468;42.824;23.240;2024-02-16T02:49:57;67473.31;;;-0.89;100.00
6859;BME280;3468;42.824;23.240;2024-02-16T02:52:24;67499.31;;;-0.88;100.00
6859;BME280;3468;42.824;23.240;2024-02-16T02:54:51;67463.16;;;-0.87;100.00
6859;BME280;3468;42.824;23.240;2024-02-16T02:57:19;67441.22;;;-0.91;100.00
6859;BME280;3468;42.824;23.240;2024-02-16T02:59:46;67433.97;;;-0.93;100.00
6859;BME280;3468;42.824;23.240;2024-02-16T03:02:12;67470.44;;;-0.91;100.00
6859;BME280;3468;42.824;23.240;2024-02-16T03:04:39;67467.00;;;-0.88;100.00
6859;BME280;3468;42.824;23.240;2024-02-16T03:07:06;67430.13;;;-0.92;100.00
6859;BME280;3468;42.824;23.240;2024-02-16T03:09:33;67422.34;;;-1.01;100.00
6859;BME280;3468;42.824;23.240;2024-02-16T03:12:00;67439.13;;;-0.95;100.00
6859;BME280;3468;42.824;23.240;2024-02-16T03:14:28;67442.41;;;-0.96;100.00
6859;BME280;3468;42.824;23.240;2024-02-16T03:16:55;67413.91;;;-0.97;100.00
6859;BME280;3468;42.824;23.240;2024-02-16T03:19:22;67449.25;;;-0.97;100.00
6859;BME280;3468;42.824;23.240;2024-02-16T03:21:48;67418.13;;;-0.96;100.00
6859;BME280;3468;42.824;23.240;2024-02-16T03:24:15;67438.56;;;-0.95;100.00
6859;BME280;3468;42.824;23.240;2024-02-16T03:26:42;67444.09;;;-0.95;100.00
6859;BME280;3468;42.824;23.240;2024-02-16T03:29:09;67437.78;;;-0.94;100.00
6859;BME280;3468;42.824;23.240;2024-02-16T03:31:37;67389.03;;;-1.21;100.00
6859;BME280;3468;42.824;23.240;2024-02-16T03:34:03;67445.84;;;-1.00;100.00
6859;BME280;3468;42.824;23.240;2024-02-16T03:36:30;67271.34;;;-1.48;100.00
6859;BME280;3468;42.824;23.240;2024-02-16T03:38:57;67421.59;;;-1.06;100.00
6859;BME280;3468;42.824;23.240;2024-02-16T03:41:23;67467.84;;;-1.09;100.00
6859;BME280;3468;42.824;23.240;2024-02-16T03:43:50;67435.41;;;-1.13;100.00
6859;BME280;3468;42.824;23.240;2024-02-16T03:46:18;67432.16;;;-1.12;100.00
6859;BME280;3468;42.824;23.240;2024-02-16T03:48:46;67438.03;;;-1.09;100.00
6859;BME280;3468;42.824;23.240;2024-02-16T03:51:13;67455.63;;;-1.11;100.00
6859;BME280;3468;42.824;23.240;2024-02-16T03:53:40;67416.28;;;-1.08;100.00
6859;BME280;3468;42.824;23.240;2024-02-16T03:56:06;67428.09;;;-1.09;100.00
6859;BME280;3468;42.824;23.240;2024-02-16T03:58:33;67429.19;;;-1.31;100.00
6859;BME280;3468;42.824;23.240;2024-02-16T04:01:00;67405.78;;;-1.15;100.00
6859;BME280;3468;42.824;23.240;2024-02-16T04:03:26;67440.00;;;-1.22;100.00
6859;BME280;3468;42.824;23.240;2024-02-16T04:05:54;67386.00;;;-1.28;100.00
6859;BME280;3468;42.824;23.240;2024-02-16T04:08:21;67395.97;;;-1.34;100.00
6859;BME280;3468;42.824;23.240;2024-02-16T04:10:48;67406.66;;;-1.36;100.00
6859;BME280;3468;42.824;23.240;2024-02-16T04:13:14;67412.59;;;-1.39;100.00
6859;BME280;3468;42.824;23.240;2024-02-16T04:15:41;67400.41;;;-1.48;100.00
6859;BME280;3468;42.824;23.240;2024-02-16T04:18:08;67424.25;;;-1.44;100.00
6859;BME280;3468;42.824;23.240;2024-02-16T04:20:35;67397.16;;;-1.46;100.00
6859;BME280;3468;42.824;23.240;2024-02-16T04:23:04;67384.94;;;-1.42;100.00
6859;BME280;3468;42.824;23.240;2024-02-16T04:25:31;67421.56;;;-1.42;100.00
6859;BME280;3468;42.824;23.240;2024-02-16T04:27:59;67242.75;;;-2.56;100.00
6859;BME280;3468;42.824;23.240;2024-02-16T04:30:25;67366.56;;;-1.81;100.00
6859;BME280;3468;42.824;23.240;2024-02-16T04:32:52;67361.47;;;-1.49;100.00
6859;BME280;3468;42.824;23.240;2024-02-16T04:35:19;67365.09;;;-1.48;100.00
6859;BME280;3468;42.824;23.240;2024-02-16T04:37:46;67398.91;;;-1.51;100.00
6859;BME280;3468;42.824;23.240;2024-02-16T04:40:14;67397.03;;;-1.57;100.00
6859;BME280;3468;42.824;23.240;2024-02-16T04:42:41;67397.03;;;-1.57;100.00
6859;BME280;3468;42.824;23.240;2024-02-16T04:45:11;67388.63;;;-1.60;100.00
6859;BME280;3468;42.824;23.240;2024-02-16T04:47:38;67375.25;;;-1.57;100.00
6859;BME280;3468;42.824;23.240;2024-02-16T04:50:06;67406.94;;;-1.57;100.00
6859;BME280;3468;42.824;23.240;2024-02-16T04:52:36;67349.06;;;-1.92;100.00
6859;BME280;3468;42.824;23.240;2024-02-16T04:55:03;67459.56;;;-2.00;100.00
6859;BME280;3468;42.824;23.240;2024-02-16T04:57:32;67414.16;;;-1.49;100.00
6859;BME280;3468;42.824;23.240;2024-02-16T04:59:59;67381.78;;;-1.66;100.00
6859;BME280;3468;42.824;23.240;2024-02-16T05:02:26;67403.28;;;-1.52;100.00
6859;BME280;3468;42.824;23.240;2024-02-16T05:04:52;67404.06;;;-1.53;100.00
6859;BME280;3468;42.824;23.240;2024-02-16T05:07:19;67400.44;;;-1.54;100.00
6859;BME280;3468;42.824;23.240;2024-02-16T05:09:46;67353.69;;;-1.58;100.00
6859;BME280;3468;42.824;23.240;2024-02-16T05:12:13;67433.66;;;-1.58;100.00
6859;BME280;3468;42.824;23.240;2024-02-16T05:14:41;67385.53;;;-1.54;100.00
6859;BME280;3468;42.824;23.240;2024-02-16T05:17:07;67404.06;;;-1.53;100.00
6859;BME280;3468;42.824;23.240;2024-02-16T05:19:34;67403.44;;;-1.47;100.00
6859;BME280;3468;42.824;23.240;2024-02-16T05:22:02;67440.69;;;-1.47;100.00
6859;BME280;3468;42.824;23.240;2024-02-16T05:24:29;67394.47;;;-1.44;100.00
6859;BME280;3468;42.824;23.240;2024-02-16T05:26:55;67399.22;;;-1.42;100.00
6859;BME280;3468;42.824;23.240;2024-02-16T05:29:22;67387.44;;;-1.48;100.00
6859;BME280;3468;42.824;23.240;2024-02-16T05:31:52;67431.69;;;-1.38;100.00
6859;BME280;3468;42.824;23.240;2024-02-16T05:34:19;67412.78;;;-1.35;100.00
6859;BME280;3468;42.824;23.240;2024-02-16T05:36:46;67368.97;;;-1.56;100.00
6859;BME280;3468;42.824;23.240;2024-02-16T05:39:13;67404.59;;;-1.40;100.00
6859;BME280;3468;42.824;23.240;2024-02-16T05:41:52;67340.13;;;-1.96;100.00
6859;BME280;3468;42.824;23.240;2024-02-16T05:44:18;67391.19;;;-1.36;100.00
6859;BME280;3468;42.824;23.240;2024-02-16T05:46:46;67432.69;;;-1.05;100.00
6859;BME280;3468;42.824;23.240;2024-02-16T05:49:14;67475.81;;;-0.52;100.00
6859;BME280;3468;42.824;23.240;2024-02-16T05:51:41;67576.66;;;0.43;100.00
6859;BME280;3468;42.824;23.240;2024-02-16T05:54:25;67647.63;;;1.69;95.91
6859;BME280;3468;42.824;23.240;2024-02-16T05:56:52;67736.78;;;2.53;87.29
6859;BME280;3468;42.824;23.240;2024-02-16T05:59:18;67826.59;;;3.71;80.48
6859;BME280;3468;42.824;23.240;2024-02-16T06:01:45;67906.47;;;5.01;73.22
6859;BME280;3468;42.824;23.240;2024-02-16T06:04:14;68026.88;;;6.26;67.60
6859;BME280;3468;42.824;23.240;2024-02-16T06:06:40;68103.63;;;7.38;62.69
6859;BME280;3468;42.824;23.240;2024-02-16T06:09:07;68263.59;;;8.39;58.59
6859;BME280;3468;42.824;23.240;2024-02-16T06:11:36;68267.78;;;9.23;55.67
6859;BME280;3468;42.824;23.240;2024-02-16T06:14:03;68399.63;;;10.34;53.79
6859;BME280;3468;42.824;23.240;2024-02-16T06:16:29;68455.16;;;11.43;49.64
6859;BME280;3468;42.824;23.240;2024-02-16T06:18:56;68534.66;;;12.15;47.80
6859;BME280;3468;42.824;23.240;2024-02-16T06:21:24;68581.19;;;12.40;45.67
6859;BME280;3468;42.824;23.240;2024-02-16T06:23:51;68626.72;;;12.68;46.23
6859;BME280;3468;42.824;23.240;2024-02-16T06:26:18;68605.88;;;13.09;45.45
6859;BME280;3468;42.824;23.240;2024-02-16T06:28:45;68675.81;;;13.41;43.52
6859;BME280;3468;42.824;23.240;2024-02-16T06:31:12;68552.50;;;12.31;45.93
6859;BME280;3468;42.824;23.240;2024-02-16T06:33:39;68543.94;;;12.01;47.14
6859;BME280;3468;42.824;23.240;2024-02-16T06:36:07;68591.28;;;12.62;47.16
6859;BME280;3468;42.824;23.240;2024-02-16T06:38:36;68620.75;;;13.18;46.02
6859;BME280;3468;42.824;23.240;2024-02-16T06:41:03;68685.03;;;13.49;44.55
6859;BME280;3468;42.824;23.240;2024-02-16T06:43:30;68719.09;;;14.08;44.07
6859;BME280;3468;42.824;23.240;2024-02-16T06:45:56;68876.03;;;14.01;42.85
6859;BME280;3468;42.824;23.240;2024-02-16T06:48:23;68717.66;;;14.36;42.18
6859;BME280;3468;42.824;23.240;2024-02-16T06:50:50;68734.19;;;14.00;42.50
6859;BME280;3468;42.824;23.240;2024-02-16T06:53:17;68575.00;;;12.28;46.36
6859;BME280;3468;42.824;23.240;2024-02-16T06:55:45;68461.97;;;11.44;47.93
6859;BME280;3468;42.824;23.240;2024-02-16T06:58:11;68441.81;;;10.90;50.22
6859;BME280;3468;42.824;23.240;2024-02-16T07:00:38;68331.44;;;9.62;54.50
6859;BME280;3468;42.824;23.240;2024-02-16T07:03:07;68309.84;;;9.31;55.79
6859;BME280;3468;42.824;23.240;2024-02-16T07:05:34;68286.41;;;9.37;56.43
6859;BME280;3468;42.824;23.240;2024-02-16T07:08:01;68256.75;;;8.98;57.36
6859;BME280;3468;42.824;23.240;2024-02-16T07:10:28;68225.44;;;8.58;60.44
6859;BME280;3468;42.824;23.240;2024-02-16T07:12:57;68203.22;;;8.15;60.80
6859;BME280;3468;42.824;23.240;2024-02-16T07:15:23;68137.56;;;7.61;64.29
6859;BME280;3468;42.824;23.240;2024-02-16T07:17:51;68096.16;;;7.32;66.35
6859;BME280;3468;42.824;23.240;2024-02-16T07:20:19;68125.91;;;7.25;66.00
6859;BME280;3468;42.824;23.240;2024-02-16T07:22:46;68072.00;;;7.28;66.82
6859;BME280;3468;42.824;23.240;2024-02-16T07:25:13;68080.28;;;7.55;66.89
6859;BME280;3468;42.824;23.240;2024-02-16T07:27:40;68113.94;;;7.36;67.05
6859;BME280;3468;42.824;23.240;2024-02-16T07:30:09;68103.34;;;7.18;67.87
6859;BME280;3468;42.824;23.240;2024-02-16T07:32:38;68141.72;;;7.30;66.12
6859;BME280;3468;42.824;23.240;2024-02-16T07:35:06;68118.75;;;7.38;65.99
6859;BME280;3468;42.824;23.240;2024-02-16T07:37:33;68154.78;;;7.76;65.75
6859;BME280;3468;42.824;23.240;2024-02-16T07:40:00;68157.34;;;8.08;66.54
6859;BME280;3468;42.824;23.240;2024-02-16T07:42:26;68197.28;;;8.23;64.95
6859;BME280;3468;42.824;23.240;2024-02-16T07:44:53;68222.09;;;8.60;63.17
6859;BME280;3468;42.824;23.240;2024-02-16T07:47:21;68244.94;;;8.75;62.88
6859;BME280;3468;42.824;23.240;2024-02-16T07:49:48;68272.75;;;9.07;62.21
6859;BME280;3468;42.824;23.240;2024-02-16T07:52:15;68230.34;;;8.86;62.20
6859;BME280;3468;42.824;23.240;2024-02-16T07:54:42;68264.09;;;8.67;62.78
6859;BME280;3468;42.824;23.240;2024-02-16T07:57:09;68286.16;;;9.06;63.23
6859;BME280;3468;42.824;23.240;2024-02-16T07:59:35;68279.06;;;9.35;61.59
6859;BME280;3468;42.824;23.240;2024-02-16T08:02:02;68319.38;;;9.52;61.07
6859;BME280;3468;42.824;23.240;2024-02-16T08:04:30;68314.44;;;9.56;61.34
6859;BME280;3468;42.824;23.240;2024-02-16T08:06:57;68311.09;;;9.69;60.65
6859;BME280;3468;42.824;23.240;2024-02-16T08:09:26;68363.19;;;9.94;59.27
6859;BME280;3468;42.824;23.240;2024-02-16T08:11:53;68298.31;;;9.86;59.77
6859;BME280;3468;42.824;23.240;2024-02-16T08:14:20;68354.44;;;9.93;58.07
6859;BME280;3468;42.824;23.240;2024-02-16T08:16:46;68343.63;;;9.99;61.30
6859;BME280;3468;42.824;23.240;2024-02-16T08:19:13;68362.16;;;9.97;59.46
6859;BME280;3468;42.824;23.240;2024-02-16T08:21:41;68392.63;;;10.13;59.82
6859;BME280;3468;42.824;23.240;2024-02-16T08:24:09;68344.31;;;10.04;59.98
6859;BME280;3468;42.824;23.240;2024-02-16T08:26:36;68389.75;;;10.10;60.87
6859;BME280;3468;42.824;23.240;2024-02-16T08:29:03;68260.22;;;9.34;61.81
6859;BME280;3468;42.824;23.240;2024-02-16T08:31:29;68285.72;;;9.32;61.00
6859;BME280;3468;42.824;23.240;2024-02-16T08:33:57;68335.13;;;9.52;60.98
6859;BME280;3468;42.824;23.240;2024-02-16T08:36:24;68348.34;;;10.07;58.97
6859;BME280;3468;42.824;23.240;2024-02-16T08:38:55;68351.88;;;10.26;58.30
6859;BME280;3468;42.824;23.240;2024-02-16T08:41:22;68391.91;;;10.30;57.45
6859;BME280;3468;42.824;23.240;2024-02-16T08:43:50;68319.88;;;10.29;59.49
6859;BME280;3468;42.824;23.240;2024-02-16T08:46:17;68477.91;;;11.16;58.96
6859;BME280;3468;42.824;23.240;2024-02-16T08:48:44;68417.81;;;11.00;57.36
6859;BME280;3468;42.824;23.240;2024-02-16T08:51:11;68514.53;;;11.50;56.12
6859;BME280;3468;42.824;23.240;2024-02-16T08:53:37;68489.06;;;11.46;56.77
6859;BME280;3468;42.824;23.240;2024-02-16T08:56:09;68490.81;;;11.47;57.75
6859;BME280;3468;42.824;23.240;2024-02-16T08:58:35;68509.88;;;11.68;58.50
6859;BME280;3468;42.824;23.240;2024-02-16T09:01:02;68471.31;;;11.35;57.10
6859;BME280;3468;42.824;23.240;2024-02-16T09:03:29;68466.63;;;11.15;57.79
6859;BME280;3468;42.824;23.240;2024-02-16T09:05:58;68515.44;;;11.53;58.96
6859;BME280;3468;42.824;23.240;2024-02-16T09:08:25;68522.72;;;11.88;56.94
6859;BME280;3468;42.824;23.240;2024-02-16T09:10:54;68598.97;;;12.40;55.83
6859;BME280;3468;42.824;23.240;2024-02-16T09:13:22;68615.25;;;12.84;55.88
6859;BME280;3468;42.824;23.240;2024-02-16T09:15:49;68643.06;;;13.17;54.41
6859;BME280;3468;42.824;23.240;2024-02-16T09:18:16;68676.28;;;13.37;54.57
6859;BME280;3468;42.824;23.240;2024-02-16T09:20:43;68669.81;;;13.38;53.54
6859;BME280;3468;42.824;23.240;2024-02-16T09:23:10;68681.47;;;13.67;55.01
6859;BME280;3468;42.824;23.240;2024-02-16T09:25:36;68655.16;;;13.54;54.16
6859;BME280;3468;42.824;23.240;2024-02-16T09:28:04;68660.81;;;13.54;53.21
6859;BME280;3468;42.824;23.240;2024-02-16T09:30:32;68688.75;;;13.65;54.15
6859;BME280;3468;42.824;23.240;2024-02-16T09:32:59;68701.41;;;14.02;53.76
6859;BME280;3468;42.824;23.240;2024-02-16T09:35:25;68718.41;;;14.30;51.65
6859;BME280;3468;42.824;23.240;2024-02-16T09:37:52;68746.69;;;14.58;51.35
6859;BME280;3468;42.824;23.240;2024-02-16T09:40:19;68789.50;;;14.88;52.40
6859;BME280;3468;42.824;23.240;2024-02-16T09:42:48;68775.38;;;15.05;51.14
6859;BME280;3468;42.824;23.240;2024-02-16T09:45:16;68803.59;;;15.14;50.75
6859;BME280;3468;42.824;23.240;2024-02-16T09:47:44;68844.22;;;15.16;50.31
6859;BME280;3468;42.824;23.240;2024-02-16T09:50:12;68787.72;;;14.83;48.97
6859;BME280;3468;42.824;23.240;2024-02-16T09:52:40;68811.16;;;14.94;51.28
6859;BME280;3468;42.824;23.240;2024-02-16T09:55:11;68845.47;;;14.95;51.25
6859;BME280;3468;42.824;23.240;2024-02-16T09:57:38;68779.91;;;14.89;52.00
6859;BME280;3468;42.824;23.240;2024-02-16T10:00:06;68682.81;;;14.49;52.04
6859;BME280;3468;42.824;23.240;2024-02-16T10:02:39;68842.41;;;15.25;51.23
6859;BME280;3468;42.824;23.240;2024-02-16T10:05:13;68744.47;;;14.46;49.94
6859;BME280;3468;42.824;23.240;2024-02-16T10:07:40;68751.88;;;14.32;50.57
6859;BME280;3468;42.824;23.240;2024-02-16T10:10:19;68682.31;;;13.81;50.41
6859;BME280;3468;42.824;23.240;2024-02-16T10:12:46;68697.50;;;13.77;51.08
6859;BME280;3468;42.824;23.240;2024-02-16T10:15:19;68652.38;;;13.56;52.48
6859;BME280;3468;42.824;23.240;2024-02-16T10:17:57;68639.75;;;13.08;53.13
6859;BME280;3468;42.824;23.240;2024-02-16T10:20:25;68666.88;;;13.20;54.15
6859;BME280;3468;42.824;23.240;2024-02-16T10:23:05;68679.25;;;13.70;54.81
6859;BME280;3468;42.824;23.240;2024-02-16T10:25:32;68686.19;;;13.91;52.61
6859;BME280;3468;42.824;23.240;2024-02-16T10:28:04;68710.06;;;13.83;51.76
6859;BME280;3468;42.824;23.240;2024-02-16T10:30:34;68743.63;;;14.16;50.77
6859;BME280;3468;42.824;23.240;2024-02-16T10:33:02;68594.81;;;13.06;51.42
6859;BME280;3468;42.824;23.240;2024-02-16T10:35:31;68581.75;;;13.45;50.02
6859;BME280;3468;42.824;23.240;2024-02-16T10:38:01;68674.00;;;13.76;50.38
6859;BME280;3468;42.824;23.240;2024-02-16T10:40:31;68680.72;;;13.73;50.78
6859;BME280;3468;42.824;23.240;2024-02-16T10:43:03;68620.53;;;12.93;51.40
6859;BME280;3468;42.824;23.240;2024-02-16T10:45:33;68673.03;;;13.17;50.72
6859;BME280;3468;42.824;23.240;2024-02-16T10:48:00;68686.94;;;13.59;51.18
6859;BME280;3468;42.824;23.240;2024-02-16T10:50:27;68663.41;;;13.43;51.07
6859;BME280;3468;42.824;23.240;2024-02-16T10:52:57;68708.09;;;13.84;50.55
6859;BME280;3468;42.824;23.240;2024-02-16T10:55:25;68710.19;;;13.88;50.90
6859;BME280;3468;42.824;23.240;2024-02-16T10:57:55;68699.56;;;13.55;52.28
6859;BME280;3468;42.824;23.240;2024-02-16T11:00:24;68788.41;;;13.20;52.14
6859;BME280;3468;42.824;23.240;2024-02-16T11:02:52;68661.94;;;13.40;53.51
6859;BME280;3468;42.824;23.240;2024-02-16T11:05:31;68671.75;;;13.63;51.39
6859;BME280;3468;42.824;23.240;2024-02-16T11:08:04;68694.75;;;13.68;49.83
6859;BME280;3468;42.824;23.240;2024-02-16T11:11:00;68739.47;;;13.82;49.15
6859;BME280;3468;42.824;23.240;2024-02-16T11:13:54;68611.78;;;13.34;51.92
6859;BME280;3468;42.824;23.240;2024-02-16T11:16:23;68694.66;;;13.63;49.89
6859;BME280;3468;42.824;23.240;2024-02-16T11:18:50;68646.94;;;13.53;50.67
6859;BME280;3468;42.824;23.240;2024-02-16T11:21:17;68683.97;;;13.52;50.37
6859;BME280;3468;42.824;23.240;2024-02-16T11:23:45;68619.63;;;13.17;52.17
6859;BME280;3468;42.824;23.240;2024-02-16T11:26:13;68665.25;;;13.23;51.66
6859;BME280;3468;42.824;23.240;2024-02-16T11:28:41;69025.47;;;13.26;49.68
6859;BME280;3468;42.824;23.240;2024-02-16T11:31:09;68745.34;;;14.18;48.43
6859;BME280;3468;42.824;23.240;2024-02-16T11:36:55;68662.91;;;13.32;49.42
6859;BME280;3468;42.824;23.240;2024-02-16T11:39:23;68672.06;;;13.51;51.08
6859;BME280;3468;42.824;23.240;2024-02-16T11:41:59;68753.03;;;14.07;51.31
6859;BME280;3468;42.824;23.240;2024-02-16T11:44:27;68753.75;;;14.27;48.81
6859;BME280;3468;42.824;23.240;2024-02-16T11:46:54;68745.47;;;14.53;49.29
6859;BME280;3468;42.824;23.240;2024-02-16T11:49:20;68766.13;;;14.82;48.05
6859;BME280;3468;42.824;23.240;2024-02-16T11:51:47;68750.91;;;14.40;47.48
6859;BME280;3468;42.824;23.240;2024-02-16T11:54:14;68751.75;;;14.28;50.39
6859;BME280;3468;42.824;23.240;2024-02-16T11:56:44;68710.69;;;13.99;50.77
6859;BME280;3468;42.824;23.240;2024-02-16T11:59:13;68786.34;;;14.16;49.87
6859;BME280;3468;42.824;23.240;2024-02-16T12:01:48;68683.09;;;13.64;47.73
6859;BME280;3468;42.824;23.240;2024-02-16T12:04:20;68705.75;;;13.66;50.93
6859;BME280;3468;42.824;23.240;2024-02-16T12:06:47;68675.31;;;13.45;50.11
6859;BME280;3468;42.824;23.240;2024-02-16T12:09:15;68671.38;;;13.46;49.45
6859;BME280;3468;42.824;23.240;2024-02-16T12:11:42;68685.72;;;13.54;50.53
6859;BME280;3468;42.824;23.240;2024-02-16T12:14:10;68637.63;;;13.41;50.21
6859;BME280;3468;42.824;23.240;2024-02-16T12:16:36;68682.00;;;13.26;49.98
6859;BME280;3468;42.824;23.240;2024-02-16T12:19:04;68600.00;;;12.84;51.82
6859;BME280;3468;42.824;23.240;2024-02-16T12:21:55;68714.16;;;11.23;51.64
6859;BME280;3468;42.824;23.240;2024-02-16T12:24:27;68641.88;;;13.68;52.01
6859;BME280;3468;42.824;23.240;2024-02-16T12:26:54;68675.41;;;13.49;50.45
6859;BME280;3468;42.824;23.240;2024-02-16T12:29:22;68492.78;;;12.78;49.74
6859;BME280;3468;42.824;23.240;2024-02-16T12:31:48;68628.78;;;13.09;48.49
6859;BME280;3468;42.824;23.240;2024-02-16T12:37:35;68711.13;;;13.80;50.55
6859;BME280;3468;42.824;23.240;2024-02-16T12:40:03;68418.75;;;12.90;51.22
6859;BME280;3468;42.824;23.240;2024-02-16T12:42:31;68942.78;;;12.49;50.35
6859;BME280;3468;42.824;23.240;2024-02-16T12:44:59;68716.38;;;13.73;49.41
6859;BME280;3468;42.824;23.240;2024-02-16T12:47:26;68767.66;;;12.80;48.76
6859;BME280;3468;42.824;23.240;2024-02-16T12:49:55;68622.00;;;13.64;48.62
6859;BME280;3468;42.824;23.240;2024-02-16T12:52:23;68536.91;;;12.80;49.22
6859;BME280;3468;42.824;23.240;2024-02-16T12:54:49;68726.59;;;14.15;49.14
6859;BME280;3468;42.824;23.240;2024-02-16T12:57:16;68752.16;;;14.19;47.52
6859;BME280;3468;42.824;23.240;2024-02-16T12:59:43;68734.00;;;14.17;48.83
6859;BME280;3468;42.824;23.240;2024-02-16T13:02:11;68730.06;;;13.92;49.98
6859;BME280;3468;42.824;23.240;2024-02-16T13:04:39;68706.50;;;14.02;48.73
6859;BME280;3468;42.824;23.240;2024-02-16T13:07:06;68754.03;;;14.14;49.80
6859;BME280;3468;42.824;23.240;2024-02-16T13:09:32;68735.34;;;14.27;48.85
6859;BME280;3468;42.824;23.240;2024-02-16T13:11:59;68723.41;;;13.99;49.68
6859;BME280;3468;42.824;23.240;2024-02-16T13:14:26;68722.47;;;13.81;49.67
6859;BME280;3468;42.824;23.240;2024-02-16T13:16:53;68596.91;;;12.99;48.07